Time;durP1;ratioP1;P1;durP2;ratioP2;P2;SDS_P1;SDS_P2;PMS_P1;PMS_P2;Temp;Humidity;BMP_temperature;BMP_pressure;BME280_temperature;BME280_humidity;BME280_pressure;Samples;Min_cycle;Max_cycle;Signal;HPM_P1;HPM_P2
2022/08/08 00:01:57;;;;;;;;;;;;;;;12.58;67.00;100494.22;1670074;85;20120;-59
2022/08/08 00:04:37;;;;;;;;;;;;;;;12.61;67.13;100496.70;1634406;87;21828;-60
2022/08/08 00:07:34;;;;;;;;;;;;;;;12.64;67.20;100488.70;1649292;85;20454;-59
2022/08/08 00:10:12;;;;;;;;;;;;;;;12.64;67.26;100487.86;1678514;82;20156;-60
2022/08/08 00:12:47;;;;;;;;;;;;;;;12.63;67.30;100484.39;1724273;82;20466;-60
2022/08/08 00:15:22;;;;;;;;;;;;;;;12.63;67.44;100481.77;1726223;82;20152;-60
2022/08/08 00:17:55;;;;;;;;;;;;;;;12.65;67.53;100483.00;1730185;82;21047;-60
2022/08/08 00:20:27;;;;;;;;;;;;;;;12.66;67.56;100484.26;1722716;82;20108;-60
2022/08/08 00:22:55;;;;;;;;;;;;;;;12.66;67.61;100486.00;1724518;82;21357;-59
2022/08/08 00:25:28;;;;;;;;;;;;;;;12.67;67.68;100480.70;1722645;82;20602;-60
2022/08/08 00:27:56;;;;;;;;;;;;;;;12.67;67.71;100485.95;1727782;82;20122;-60
2022/08/08 00:30:24;;;;;;;;;;;;;;;12.65;67.75;100483.84;1716813;82;21101;-60
2022/08/08 00:32:56;;;;;;;;;;;;;;;12.63;67.84;100489.63;1714720;82;20140;-59
2022/08/08 00:35:48;;;;;;;;;;;;;;;12.64;67.91;100480.84;1700218;82;20151;-60
2022/08/08 00:38:27;;;;;;;;;;;;;;;12.62;67.97;100485.29;1717329;82;20150;-59
2022/08/08 00:41:28;;;;;;;;;;;;;;;12.66;68.17;100480.76;1716263;82;20110;-60
2022/08/08 00:44:01;;;;;;;;;;;;;;;12.65;68.05;100482.53;1717855;82;21300;-59
2022/08/08 00:46:59;;;;;;;;;;;;;;;12.61;68.15;100482.29;1721083;82;20435;-60
2022/08/08 00:49:44;;;;;;;;;;;;;;;12.65;68.29;100484.31;1720764;82;20114;-60
2022/08/08 00:52:38;;;;;;;;;;;;;;;12.70;68.46;100485.81;1720233;82;20853;-60
2022/08/08 00:55:23;;;;;;;;;;;;;;;12.73;68.52;100484.36;1722385;81;20157;-60
2022/08/08 00:58:24;;;;;;;;;;;;;;;12.80;68.51;100478.41;1719165;82;21135;-60
2022/08/08 01:01:13;;;;;;;;;;;;;;;12.83;68.53;100478.73;1715600;82;20293;-60
2022/08/08 01:17:29;;;;;;;;;;;;;;;12.72;69.08;100477.89;1402758;101;20127;-60
2022/08/08 01:20:17;;;;;;;;;;;;;;;12.76;69.22;100480.76;1396562;101;20180;-60
2022/08/08 01:23:19;;;;;;;;;;;;;;;12.80;69.24;100473.60;1403885;101;20154;-60
2022/08/08 01:26:05;;;;;;;;;;;;;;;12.84;69.33;100475.19;1405137;100;21036;-60
2022/08/08 01:29:03;;;;;;;;;;;;;;;12.89;69.39;100471.91;1397518;101;20168;-59
2022/08/08 01:31:33;;;;;;;;;;;;;;;12.92;69.37;100477.00;1411109;95;20206;-60
2022/08/08 01:34:21;;;;;;;;;;;;;;;12.95;69.48;100477.71;1475227;95;20096;-60
2022/08/08 01:37:07;;;;;;;;;;;;;;;12.98;69.55;100479.34;1467618;95;20155;-60
2022/08/08 01:39:55;;;;;;;;;;;;;;;13.03;69.57;100479.99;1495751;92;21079;-60
2022/08/08 01:42:44;;;;;;;;;;;;;;;13.08;69.66;100470.16;1548976;90;20111;-60
2022/08/08 01:45:35;;;;;;;;;;;;;;;13.14;69.65;100475.11;1589856;88;20562;-60
2022/08/08 01:48:23;;;;;;;;;;;;;;;13.15;69.71;100468.94;1643271;85;20114;-60
2022/08/08 01:51:09;;;;;;;;;;;;;;;13.20;69.84;100469.58;1682920;83;20489;-60
2022/08/08 01:53:51;;;;;;;;;;;;;;;13.24;69.80;100473.37;1672701;83;21184;-59
2022/08/08 01:56:30;;;;;;;;;;;;;;;13.25;69.91;100471.13;1689964;83;20524;-60
2022/08/08 01:59:12;;;;;;;;;;;;;;;13.26;70.00;100467.63;1687942;83;20160;-60
2022/08/08 02:02:13;;;;;;;;;;;;;;;13.29;69.99;100475.35;1689313;83;20129;-60
2022/08/08 02:05:00;;;;;;;;;;;;;;;13.29;70.01;100475.35;1693918;83;20106;-60
2022/08/08 02:07:39;;;;;;;;;;;;;;;13.35;70.10;100469.81;1693424;82;21009;-60
2022/08/08 02:10:40;;;;;;;;;;;;;;;13.40;70.08;100466.52;1687836;83;20508;-60
2022/08/08 02:13:13;;;;;;;;;;;;;;;13.45;70.16;100471.09;1687334;83;20117;-60
2022/08/08 02:15:44;;;;;;;;;;;;;;;13.53;70.21;100472.89;1690744;83;20140;-60
2022/08/08 02:18:16;;;;;;;;;;;;;;;13.57;70.24;100467.87;1689733;82;20119;-60
2022/08/08 02:23:52;;;;;;;;;;;;;;;13.64;70.26;100477.17;1687183;83;20096;-60
2022/08/08 02:26:31;;;;;;;;;;;;;;;13.59;70.24;100480.47;1692039;82;20115;-61
2022/08/08 02:29:25;;;;;;;;;;;;;;;13.60;70.37;100471.66;1712373;81;20121;-61
2022/08/08 02:32:12;;;;;;;;;;;;;;;13.65;70.43;100475.39;1717990;82;20501;-60
2022/08/08 02:34:51;;;;;;;;;;;;;;;13.71;70.46;100475.55;1697299;81;21962;-60
2022/08/08 02:37:32;;;;;;;;;;;;;;;13.71;70.51;100477.72;1724150;82;20138;-60
2022/08/08 02:40:18;;;;;;;;;;;;;;;13.75;70.50;100473.16;1719428;82;20875;-60
2022/08/08 02:42:54;;;;;;;;;;;;;;;13.74;70.50;100471.47;1717856;82;20669;-60
2022/08/08 02:45:41;;;;;;;;;;;;;;;13.68;70.55;100471.77;1713832;82;20122;-60
2022/08/08 02:48:36;;;;;;;;;;;;;;;13.66;70.62;100485.80;1717247;82;21106;-60
2022/08/08 02:51:24;;;;;;;;;;;;;;;13.64;70.67;100481.11;1719693;82;20464;-59
2022/08/08 02:54:25;;;;;;;;;;;;;;;13.65;70.76;100486.73;1712581;82;20144;-60
2022/08/08 02:56:58;;;;;;;;;;;;;;;13.72;70.96;100480.71;1720997;82;20201;-60
2022/08/08 02:59:37;;;;;;;;;;;;;;;13.70;70.78;100477.80;1719639;82;20194;-59
2022/08/08 03:02:36;;;;;;;;;;;;;;;13.63;70.92;100479.39;1722664;82;21997;-60
2022/08/08 03:05:31;;;;;;;;;;;;;;;13.59;70.95;100473.91;1720068;82;20150;-59
2022/08/08 03:08:04;;;;;;;;;;;;;;;13.55;71.08;100474.12;1716378;82;20085;-60
2022/08/08 03:10:39;;;;;;;;;;;;;;;13.51;71.14;100478.67;1704813;82;20623;-60
2022/08/08 03:13:22;;;;;;;;;;;;;;;13.45;71.18;100473.72;1726153;82;20218;-60
2022/08/08 03:16:19;;;;;;;;;;;;;;;13.46;71.34;100478.03;1717599;82;21138;-60
2022/08/08 03:18:49;;;;;;;;;;;;;;;13.46;71.44;100474.09;1724905;82;20282;-60
2022/08/08 03:21:15;;;;;;;;;;;;;;;13.49;71.51;100485.75;1721270;82;20120;-60
2022/08/08 03:23:41;;;;;;;;;;;;;;;13.50;71.52;100479.61;1723569;82;20159;-60
2022/08/08 03:26:07;;;;;;;;;;;;;;;13.52;71.47;100480.36;1717297;82;20427;-60
2022/08/08 03:28:52;;;;;;;;;;;;;;;13.49;71.56;100478.35;1707258;81;21257;-60
2022/08/08 03:34:18;;;;;;;;;;;;;;;13.52;71.51;100476.89;1700204;82;20148;-60
2022/08/08 03:36:43;;;;;;;;;;;;;;;13.47;71.52;100485.00;1688500;83;20156;-60
2022/08/08 03:39:13;;;;;;;;;;;;;;;13.48;71.75;100489.78;1706189;81;20157;-61
2022/08/08 03:41:40;;;;;;;;;;;;;;;13.52;71.76;100487.38;1705415;81;21134;-61
2022/08/08 03:44:07;;;;;;;;;;;;;;;13.53;71.75;100489.95;1683311;83;20128;-59
2022/08/08 03:46:47;;;;;;;;;;;;;;;13.54;71.84;100488.17;1690509;84;20102;-60
2022/08/08 03:49:22;;;;;;;;;;;;;;;13.61;71.91;100487.81;1689208;83;20140;-60
2022/08/08 03:51:53;;;;;;;;;;;;;;;13.66;71.88;100493.67;1699809;82;20152;-60
2022/08/08 03:54:19;;;;;;;;;;;;;;;13.73;71.89;100493.40;1704699;82;21061;-60
2022/08/08 03:56:46;;;;;;;;;;;;;;;13.80;71.93;100497.41;1702241;82;20232;-60
2022/08/08 03:59:12;;;;;;;;;;;;;;;13.88;71.95;100495.27;1696022;82;20094;-61
2022/08/08 04:01:40;;;;;;;;;;;;;;;13.95;71.99;100494.06;1697078;82;20500;-61
2022/08/08 04:04:07;;;;;;;;;;;;;;;14.03;72.02;100499.79;1702018;82;20130;-59
2022/08/08 04:06:34;;;;;;;;;;;;;;;14.05;72.01;100500.54;1704173;82;21059;-61
2022/08/08 04:09:03;;;;;;;;;;;;;;;14.08;72.15;100499.07;1685111;83;20137;-62
2022/08/08 04:11:30;;;;;;;;;;;;;;;14.13;72.12;100501.95;1704441;82;20132;-61
2022/08/08 04:13:57;;;;;;;;;;;;;;;14.13;72.19;100507.20;1698854;83;20518;-58
2022/08/08 04:16:24;;;;;;;;;;;;;;;14.15;72.20;100502.73;1694366;83;20120;-60
2022/08/08 04:18:51;;;;;;;;;;;;;;;14.15;72.23;100505.36;1695412;83;21748;-60
2022/08/08 04:21:18;;;;;;;;;;;;;;;14.14;72.22;100509.73;1702549;82;20143;-61
2022/08/08 04:23:44;;;;;;;;;;;;;;;14.13;72.26;100513.77;1699494;82;20143;-60
2022/08/08 04:26:10;;;;;;;;;;;;;;;14.12;72.29;100512.08;1701208;83;20579;-60
2022/08/08 04:28:37;;;;;;;;;;;;;;;14.17;72.57;100516.62;1710289;82;20170;-61
2022/08/08 04:31:04;;;;;;;;;;;;;;;14.28;72.59;100519.56;1721403;82;21262;-60
2022/08/08 04:33:31;;;;;;;;;;;;;;;14.36;72.61;100515.24;1722225;82;20178;-60
2022/08/08 04:35:57;;;;;;;;;;;;;;;14.42;72.56;100518.40;1719886;82;20087;-60
2022/08/08 04:38:23;;;;;;;;;;;;;;;14.45;72.61;100516.08;1718097;82;20112;-60
2022/08/08 04:40:50;;;;;;;;;;;;;;;14.50;72.63;100525.44;1721406;82;20136;-60
2022/08/08 04:43:16;;;;;;;;;;;;;;;14.58;72.75;100525.08;1720878;82;21867;-60
2022/08/08 04:45:43;;;;;;;;;;;;;;;14.71;72.85;100528.79;1725948;81;20115;-60
2022/08/08 04:48:09;;;;;;;;;;;;;;;14.80;72.66;100531.41;1740903;81;20110;-60
2022/08/08 04:50:36;;;;;;;;;;;;;;;14.84;72.61;100530.30;1707989;81;20087;-60
2022/08/08 04:53:02;;;;;;;;;;;;;;;14.85;72.56;100532.49;1725524;82;20124;-60
2022/08/08 04:55:28;;;;;;;;;;;;;;;14.79;72.66;100532.34;1728714;81;21020;-60
2022/08/08 04:57:55;;;;;;;;;;;;;;;14.71;72.62;100527.95;1720245;82;20460;-60
2022/08/08 05:00:24;;;;;;;;;;;;;;;14.72;72.73;100533.58;1713019;81;20100;-60
2022/08/08 05:02:50;;;;;;;;;;;;;;;14.86;73.00;100529.77;1720677;83;20458;-60
2022/08/08 05:05:16;;;;;;;;;;;;;;;15.05;73.08;100531.44;1709148;83;20079;-60
2022/08/08 05:07:45;;;;;;;;;;;;;;;15.17;72.77;100526.36;1703715;81;22006;-59
2022/08/08 05:10:11;;;;;;;;;;;;;;;15.31;72.97;100529.56;1713801;83;20111;-59
2022/08/08 05:12:38;;;;;;;;;;;;;;;15.49;72.77;100520.28;1708203;83;20106;-60
2022/08/08 05:15:08;;;;;;;;;;;;;;;15.65;72.63;100523.77;1741492;81;20114;-60
2022/08/08 05:17:34;;;;;;;;;;;;;;;15.72;72.39;100529.59;1712453;83;20450;-60
2022/08/08 05:20:01;;;;;;;;;;;;;;;15.84;72.56;100526.27;1735485;81;21427;-60
2022/08/08 05:22:27;;;;;;;;;;;;;;;15.93;72.35;100533.63;1719258;82;20444;-60
2022/08/08 05:24:53;;;;;;;;;;;;;;;16.05;72.41;100528.16;1722089;82;20103;-60
2022/08/08 05:27:20;;;;;;;;;;;;;;;16.26;72.56;100528.22;1725932;82;20152;-60
2022/08/08 05:29:46;;;;;;;;;;;;;;;16.48;72.54;100525.66;1721013;82;20096;-61
2022/08/08 05:32:13;;;;;;;;;;;;;;;16.71;72.55;100531.72;1723907;82;20518;-60
2022/08/08 05:34:43;;;;;;;;;;;;;;;17.00;72.34;100530.48;1720941;82;20142;-61
2022/08/08 05:37:11;;;;;;;;;;;;;;;17.18;71.79;100531.13;1720155;81;20181;-61
2022/08/08 05:39:40;;;;;;;;;;;;;;;17.30;71.94;100530.83;1718259;81;20175;-59
2022/08/08 05:42:06;;;;;;;;;;;;;;;17.45;71.79;100528.56;1722705;82;20951;-60
2022/08/08 05:44:34;;;;;;;;;;;;;;;17.43;71.37;100530.45;1721773;82;21003;-60
2022/08/08 05:47:01;;;;;;;;;;;;;;;17.43;71.53;100539.69;1719640;82;20089;-60
2022/08/08 05:49:27;;;;;;;;;;;;;;;17.42;71.22;100540.16;1723560;82;20124;-62
2022/08/08 05:51:56;;;;;;;;;;;;;;;17.43;71.31;100539.69;1697795;82;20572;-60
2022/08/08 05:54:22;;;;;;;;;;;;;;;17.45;71.29;100537.81;1723497;82;20104;-60
2022/08/08 05:56:50;;;;;;;;;;;;;;;17.58;71.33;100541.34;1721222;82;20665;-60
2022/08/08 05:59:22;;;;;;;;;;;;;;;17.73;71.54;100547.91;1719446;82;20209;-60
2022/08/08 06:01:52;;;;;;;;;;;;;;;17.66;70.51;100541.70;1719990;82;20091;-61
2022/08/08 06:04:24;;;;;;;;;;;;;;;17.62;70.72;100542.86;1722263;82;20096;-62
2022/08/08 06:06:52;;;;;;;;;;;;;;;17.65;70.72;100542.66;1721693;82;20105;-61
2022/08/08 06:09:22;;;;;;;;;;;;;;;17.71;70.86;100548.03;1721709;82;21267;-61
2022/08/08 06:11:49;;;;;;;;;;;;;;;17.71;70.52;100548.51;1718974;82;20688;-61
2022/08/08 06:14:15;;;;;;;;;;;;;;;17.60;70.04;100553.98;1722867;82;20116;-61
2022/08/08 06:16:43;;;;;;;;;;;;;;;17.51;70.20;100558.54;1719166;82;20437;-61
2022/08/08 06:19:10;;;;;;;;;;;;;;;17.42;69.81;100561.73;1723639;82;20141;-61
2022/08/08 06:21:36;;;;;;;;;;;;;;;17.33;70.17;100564.95;1718992;82;21046;-61
2022/08/08 06:24:05;;;;;;;;;;;;;;;17.33;70.25;100562.31;1719456;82;20092;-61
2022/08/08 06:26:35;;;;;;;;;;;;;;;17.51;70.54;100563.82;1720613;81;20152;-61
2022/08/08 06:29:05;;;;;;;;;;;;;;;17.81;70.40;100564.16;1724256;82;20646;-62
2022/08/08 06:31:34;;;;;;;;;;;;;;;18.14;70.12;100564.25;1714910;82;20475;-62
2022/08/08 06:34:15;;;;;;;;;;;;;;;18.72;70.18;100568.30;1707424;82;21285;-62
2022/08/08 06:36:44;;;;;;;;;;;;;;;19.50;70.21;100564.72;1720754;82;20155;-61
2022/08/08 06:39:15;;;;;;;;;;;;;;;19.95;69.13;100559.73;1711067;82;20409;-63
2022/08/08 06:42:00;;;;;;;;;;;;;;;20.12;68.83;100565.97;1715623;82;20084;-62
2022/08/08 06:44:26;;;;;;;;;;;;;;;20.37;68.98;100562.82;1726133;81;20105;-63
2022/08/08 06:46:53;;;;;;;;;;;;;;;20.26;66.35;100564.45;1693826;83;21138;-63
2022/08/08 06:49:20;;;;;;;;;;;;;;;19.81;67.22;100561.58;1702474;83;20487;-61
2022/08/08 06:51:46;;;;;;;;;;;;;;;19.74;67.47;100562.97;1705249;83;20110;-61
2022/08/08 06:54:13;;;;;;;;;;;;;;;19.69;67.37;100557.18;1720543;82;20115;-60
2022/08/08 06:56:40;;;;;;;;;;;;;;;19.68;67.29;100562.09;1709528;82;20121;-62
2022/08/08 06:59:07;;;;;;;;;;;;;;;19.87;67.55;100565.10;1714748;82;21074;-62
2022/08/08 07:01:39;;;;;;;;;;;;;;;20.09;66.78;100562.22;1710907;82;20186;-62
2022/08/08 07:04:12;;;;;;;;;;;;;;;20.20;66.35;100563.59;1706083;82;20456;-60
2022/08/08 07:06:41;;;;;;;;;;;;;;;20.11;65.11;100566.94;1716670;82;20141;-61
2022/08/08 07:09:14;;;;;;;;;;;;;;;20.11;65.14;100571.75;1714676;82;20100;-64
2022/08/08 07:11:41;;;;;;;;;;;;;;;20.15;64.60;100569.70;1709914;82;21110;-63
2022/08/08 07:14:11;;;;;;;;;;;;;;;20.19;63.64;100576.47;1719962;82;20104;-62
2022/08/08 07:17:02;;;;;;;;;;;;;;;20.21;63.15;100570.58;1703993;82;20098;-62
2022/08/08 07:19:40;;;;;;;;;;;;;;;20.34;63.91;100575.34;1717797;82;20157;-62
2022/08/08 07:22:08;;;;;;;;;;;;;;;21.01;63.97;100567.23;1701234;82;20512;-62
2022/08/08 07:24:41;;;;;;;;;;;;;;;21.92;64.88;100564.89;1711328;82;21192;-63
2022/08/08 07:27:11;;;;;;;;;;;;;;;23.10;64.83;100563.01;1715506;82;20174;-62
2022/08/08 07:29:38;;;;;;;;;;;;;;;23.78;62.32;100563.30;1707946;82;20189;-62
2022/08/08 07:32:06;;;;;;;;;;;;;;;24.04;62.55;100562.77;1679790;84;20552;-61
2022/08/08 07:34:36;;;;;;;;;;;;;;;24.07;60.60;100561.16;1698865;83;20086;-61
2022/08/08 07:37:04;;;;;;;;;;;;;;;23.66;59.95;100567.01;1722804;83;21115;-60
2022/08/08 07:39:32;;;;;;;;;;;;;;;23.18;60.05;100565.86;1720428;83;20505;-60
2022/08/08 07:41:58;;;;;;;;;;;;;;;22.79;59.81;100572.76;1720893;82;20132;-61
2022/08/08 07:44:25;;;;;;;;;;;;;;;22.58;59.17;100575.44;1720891;83;20459;-61
2022/08/08 07:46:51;;;;;;;;;;;;;;;22.49;59.90;100576.19;1680830;83;20140;-62
2022/08/08 07:49:18;;;;;;;;;;;;;;;22.63;59.65;100579.89;1710983;82;21052;-62
2022/08/08 07:51:46;;;;;;;;;;;;;;;22.68;59.29;100580.81;1682097;84;20114;-62
2022/08/08 07:54:34;;;;;;;;;;;;;;;22.89;59.70;100584.33;1702315;83;20146;-61
2022/08/08 07:57:03;;;;;;;;;;;;;;;23.06;58.87;100584.73;1724815;82;20124;-62
2022/08/08 07:59:36;;;;;;;;;;;;;;;23.20;58.35;100583.05;1719026;83;20223;-61
2022/08/08 08:02:05;;;;;;;;;;;;;;;23.27;58.37;100588.19;1687127;83;20969;-62
2022/08/08 08:04:33;;;;;;;;;;;;;;;23.32;57.88;100588.64;1721396;81;20136;-62
2022/08/08 08:07:00;;;;;;;;;;;;;;;23.62;58.24;100588.27;1720286;82;20132;-62
2022/08/08 08:09:30;;;;;;;;;;;;;;;24.07;57.49;100586.50;1723430;81;20122;-62
2022/08/08 08:11:58;;;;;;;;;;;;;;;24.21;57.48;100583.42;1717337;83;20093;-62
2022/08/08 08:14:47;;;;;;;;;;;;;;;24.37;56.85;100590.02;1721936;83;21856;-62
2022/08/08 08:17:17;;;;;;;;;;;;;;;24.29;55.67;100588.91;1695148;83;20114;-62
2022/08/08 08:19:44;;;;;;;;;;;;;;;24.14;56.25;100586.28;1717411;82;20092;-61
2022/08/08 08:22:11;;;;;;;;;;;;;;;24.43;56.21;100592.14;1717759;82;20108;-62
2022/08/08 08:24:37;;;;;;;;;;;;;;;24.70;55.64;100586.96;1714294;82;20086;-62
2022/08/08 08:27:04;;;;;;;;;;;;;;;24.96;54.62;100591.69;1714786;82;20875;-62
2022/08/08 08:29:32;;;;;;;;;;;;;;;24.76;51.41;100591.72;1713983;82;20125;-61
2022/08/08 08:31:59;;;;;;;;;;;;;;;24.00;52.10;100597.36;1704591;82;20099;-62
2022/08/08 08:34:26;;;;;;;;;;;;;;;24.26;53.67;100594.52;1707939;83;20157;-61
2022/08/08 08:36:52;;;;;;;;;;;;;;;24.50;52.47;100602.13;1707153;81;20120;-62
2022/08/08 08:39:18;;;;;;;;;;;;;;;24.34;52.60;100602.67;1690558;84;21072;-62
2022/08/08 08:41:45;;;;;;;;;;;;;;;24.48;52.37;100605.45;1708085;83;20124;-61
2022/08/08 08:44:13;;;;;;;;;;;;;;;24.43;52.07;100602.82;1708370;83;20116;-62
2022/08/08 08:46:40;;;;;;;;;;;;;;;24.31;51.76;100597.63;1716777;82;20488;-62
2022/08/08 08:49:06;;;;;;;;;;;;;;;24.24;51.73;100597.81;1716057;82;20084;-62
2022/08/08 08:51:40;;;;;;;;;;;;;;;24.33;51.70;100599.64;1723183;82;20917;-62
2022/08/08 08:54:07;;;;;;;;;;;;;;;24.47;51.61;100600.23;1714472;82;20199;-62
2022/08/08 08:56:36;;;;;;;;;;;;;;;24.96;50.87;100597.03;1720255;81;20090;-62
2022/08/08 08:59:04;;;;;;;;;;;;;;;24.44;45.81;100601.86;1721640;82;20131;-62
2022/08/08 09:01:34;;;;;;;;;;;;;;;23.89;49.34;100599.19;1715676;82;20487;-62
2022/08/08 09:04:09;;;;;;;;;;;;;;;23.74;48.29;100604.53;1693167;82;21195;-62
2022/08/08 09:06:40;;;;;;;;;;;;;;;23.57;49.33;100598.48;1724019;82;20108;-62
2022/08/08 09:09:21;;;;;;;;;;;;;;;23.16;47.67;100599.80;1717985;82;20122;-61
2022/08/08 09:11:50;;;;;;;;;;;;;;;23.23;49.57;100593.44;1717200;82;20762;-62
2022/08/08 09:14:20;;;;;;;;;;;;;;;23.57;49.00;100590.49;1724528;82;20151;-62
2022/08/08 09:16:47;;;;;;;;;;;;;;;24.00;49.67;100589.36;1717866;81;21047;-62
2022/08/08 09:19:14;;;;;;;;;;;;;;;24.81;49.91;100587.77;1709835;82;20426;-62
2022/08/08 09:21:40;;;;;;;;;;;;;;;25.17;48.14;100588.33;1720600;82;20140;-62
2022/08/08 09:24:07;;;;;;;;;;;;;;;25.22;48.60;100581.22;1725612;82;20195;-62
2022/08/08 09:26:55;;;;;;;;;;;;;;;25.41;48.65;100578.47;1696242;82;20158;-62
2022/08/08 09:29:23;;;;;;;;;;;;;;;25.59;48.42;100575.84;1728220;81;21114;-62
2022/08/08 09:32:06;;;;;;;;;;;;;;;25.67;47.82;100586.63;1722383;81;20178;-61
2022/08/08 09:34:34;;;;;;;;;;;;;;;25.66;47.96;100577.44;1718619;82;20132;-62
2022/08/08 09:37:09;;;;;;;;;;;;;;;25.99;48.10;100584.50;1707400;82;20092;-62
2022/08/08 09:40:00;;;;;;;;;;;;;;;26.43;47.83;100574.72;1720850;82;20151;-62
2022/08/08 09:42:33;;;;;;;;;;;;;;;26.85;47.84;100576.73;1719443;82;21972;-62
2022/08/08 09:45:07;;;;;;;;;;;;;;;27.35;47.10;100574.70;1716371;82;20166;-62
2022/08/08 09:47:37;;;;;;;;;;;;;;;27.62;46.77;100578.19;1724155;82;20074;-62
2022/08/08 09:50:07;;;;;;;;;;;;;;;28.00;46.49;100579.98;1717394;82;20127;-63
2022/08/08 09:52:35;;;;;;;;;;;;;;;27.89;46.22;100581.12;1715510;82;20110;-62
2022/08/08 09:55:02;;;;;;;;;;;;;;;27.62;45.77;100586.23;1716623;82;21693;-62
2022/08/08 09:57:38;;;;;;;;;;;;;;;27.32;45.36;100584.41;1716200;82;20102;-63
2022/08/08 10:00:10;;;;;;;;;;;;;;;27.11;45.28;100582.11;1717377;82;20096;-62
2022/08/08 10:02:42;;;;;;;;;;;;;;;26.79;44.97;100580.05;1717449;82;20137;-61
2022/08/08 10:05:17;;;;;;;;;;;;;;;26.17;43.82;100581.85;1718098;82;20109;-62
2022/08/08 10:07:46;;;;;;;;;;;;;;;25.33;42.69;100589.55;1719967;82;20520;-61
2022/08/08 10:10:12;;;;;;;;;;;;;;;24.51;43.07;100586.98;1715268;82;20430;-61
2022/08/08 10:12:39;;;;;;;;;;;;;;;24.45;43.89;100583.05;1716846;82;20767;-61
2022/08/08 10:15:08;;;;;;;;;;;;;;;24.68;43.94;100586.25;1717541;81;20137;-61
2022/08/08 10:17:45;;;;;;;;;;;;;;;24.67;43.64;100591.22;1713290;82;20134;-61
2022/08/08 10:20:12;;;;;;;;;;;;;;;24.70;43.67;100589.63;1719596;82;21046;-61
2022/08/08 10:22:42;;;;;;;;;;;;;;;24.53;41.83;100588.52;1700155;82;20132;-61
2022/08/08 10:25:10;;;;;;;;;;;;;;;24.03;42.50;100595.28;1721791;82;20120;-61
2022/08/08 10:27:43;;;;;;;;;;;;;;;23.83;42.38;100595.70;1721209;82;20432;-62
2022/08/08 10:30:10;;;;;;;;;;;;;;;23.50;42.75;100590.66;1723376;82;20126;-61
2022/08/08 10:32:44;;;;;;;;;;;;;;;23.60;42.97;100590.22;1719327;81;21103;-61
2022/08/08 10:35:16;;;;;;;;;;;;;;;23.69;42.97;100594.73;1715911;82;20116;-61
2022/08/08 10:38:00;;;;;;;;;;;;;;;23.75;43.26;100595.58;1727016;82;20168;-62
2022/08/08 10:40:28;;;;;;;;;;;;;;;23.96;42.91;100599.96;1715452;82;20844;-61
2022/08/08 10:43:00;;;;;;;;;;;;;;;23.74;42.31;100593.87;1715987;82;20118;-61
2022/08/08 10:45:28;;;;;;;;;;;;;;;23.64;42.92;100590.31;1726281;82;21104;-61
2022/08/08 10:47:59;;;;;;;;;;;;;;;23.68;42.84;100591.72;1720472;82;20107;-61
2022/08/08 10:50:34;;;;;;;;;;;;;;;23.81;43.05;100595.02;1719005;82;20076;-61
2022/08/08 10:53:03;;;;;;;;;;;;;;;23.87;42.52;100593.63;1718821;82;20092;-62
2022/08/08 10:55:30;;;;;;;;;;;;;;;23.77;42.49;100589.59;1720905;82;20111;-61
2022/08/08 10:58:02;;;;;;;;;;;;;;;23.70;42.83;100591.10;1719076;82;21045;-62
2022/08/08 11:00:29;;;;;;;;;;;;;;;23.89;42.96;100595.19;1718753;82;20106;-62
2022/08/08 11:02:59;;;;;;;;;;;;;;;23.90;42.73;100584.02;1722472;82;20084;-63
2022/08/08 11:05:26;;;;;;;;;;;;;;;23.94;42.70;100589.41;1720901;82;20151;-63
2022/08/08 11:07:56;;;;;;;;;;;;;;;23.94;42.60;100580.58;1722239;82;20133;-62
2022/08/08 11:10:24;;;;;;;;;;;;;;;23.97;42.01;100585.63;1722222;82;21220;-62
2022/08/08 11:12:52;;;;;;;;;;;;;;;23.85;42.58;100583.09;1720928;82;20203;-62
2022/08/08 11:15:21;;;;;;;;;;;;;;;23.86;41.21;100586.59;1720470;82;20397;-62
2022/08/08 11:17:48;;;;;;;;;;;;;;;23.35;41.87;100585.70;1721517;82;20087;-62
2022/08/08 11:20:17;;;;;;;;;;;;;;;22.95;41.24;100585.16;1720338;82;20114;-61
2022/08/08 11:22:52;;;;;;;;;;;;;;;22.88;42.40;100585.31;1726741;82;22408;-61
2022/08/08 11:25:22;;;;;;;;;;;;;;;23.03;42.30;100582.34;1718633;82;20119;-61
2022/08/08 11:27:49;;;;;;;;;;;;;;;22.91;42.40;100582.84;1718519;82;20089;-62
2022/08/08 11:30:17;;;;;;;;;;;;;;;22.94;42.63;100583.45;1720400;82;20079;-63
2022/08/08 11:32:44;;;;;;;;;;;;;;;23.01;42.61;100583.78;1716785;82;20115;-62
2022/08/08 11:35:12;;;;;;;;;;;;;;;23.10;42.71;100584.81;1707814;82;21080;-61
2022/08/08 11:37:41;;;;;;;;;;;;;;;23.33;42.70;100579.69;1699967;83;20469;-61
2022/08/08 11:40:10;;;;;;;;;;;;;;;23.48;43.06;100581.48;1718775;82;20097;-61
2022/08/08 11:42:37;;;;;;;;;;;;;;;23.60;41.99;100576.89;1716366;82;20490;-60
2022/08/08 11:45:07;;;;;;;;;;;;;;;23.28;42.17;100575.23;1717418;82;20112;-61
2022/08/08 11:47:35;;;;;;;;;;;;;;;23.24;42.99;100580.46;1710466;82;21044;-61
2022/08/08 11:50:07;;;;;;;;;;;;;;;23.27;42.26;100574.86;1719406;82;20114;-61
2022/08/08 11:52:35;;;;;;;;;;;;;;;23.13;42.63;100572.56;1719296;82;20100;-61
2022/08/08 11:55:02;;;;;;;;;;;;;;;22.97;42.49;100573.89;1721839;82;20117;-61
2022/08/08 11:57:29;;;;;;;;;;;;;;;22.69;42.40;100579.86;1691229;82;20094;-61
2022/08/08 12:00:00;;;;;;;;;;;;;;;22.44;42.67;100573.93;1713517;82;21706;-61
2022/08/08 12:02:29;;;;;;;;;;;;;;;22.32;43.03;100566.95;1710972;82;20124;-61
2022/08/08 12:05:05;;;;;;;;;;;;;;;22.39;42.99;100578.78;1715715;82;20152;-61
2022/08/08 12:07:45;;;;;;;;;;;;;;;22.39;43.57;100566.81;1716113;82;20138;-61
2022/08/08 12:10:13;;;;;;;;;;;;;;;22.65;43.25;100565.10;1712760;82;20445;-60
2022/08/08 12:12:44;;;;;;;;;;;;;;;22.85;43.15;100572.23;1716186;82;22277;-62
2022/08/08 12:15:11;;;;;;;;;;;;;;;22.72;43.28;100575.11;1721044;82;20082;-61
2022/08/08 12:17:41;;;;;;;;;;;;;;;22.32;43.39;100574.93;1723795;82;20465;-62
2022/08/08 12:20:08;;;;;;;;;;;;;;;22.19;43.71;100576.94;1715655;82;20118;-61
2022/08/08 12:22:38;;;;;;;;;;;;;;;22.18;44.05;100579.22;1716746;82;20141;-61
2022/08/08 12:25:05;;;;;;;;;;;;;;;22.16;44.25;100579.83;1711029;82;21858;-61
2022/08/08 12:27:37;;;;;;;;;;;;;;;22.13;44.51;100568.45;1715147;82;20136;-63
2022/08/08 12:30:04;;;;;;;;;;;;;;;22.36;44.59;100575.05;1715727;82;20090;-62
2022/08/08 12:32:42;;;;;;;;;;;;;;;22.73;44.66;100578.61;1721026;81;20666;-63
2022/08/08 12:35:22;;;;;;;;;;;;;;;22.69;44.37;100570.55;1728543;82;20104;-62
2022/08/08 12:38:04;;;;;;;;;;;;;;;22.66;44.88;100570.31;1711636;83;21919;-62
2022/08/08 12:40:48;;;;;;;;;;;;;;;22.48;45.52;100570.02;1706955;83;20436;-62
2022/08/08 12:43:15;;;;;;;;;;;;;;;22.47;44.64;100569.67;1715466;83;20133;-61
2022/08/08 12:45:44;;;;;;;;;;;;;;;22.41;44.78;100573.34;1722602;82;37962;-63
2022/08/08 12:48:18;;;;;;;;;;;;;;;22.26;44.79;100570.13;1723568;81;20134;-63
2022/08/08 12:50:49;;;;;;;;;;;;;;;22.29;45.15;100568.53;1704042;82;21100;-62
2022/08/08 12:53:32;;;;;;;;;;;;;;;22.53;45.14;100569.65;1708391;82;20568;-63
2022/08/08 12:56:09;;;;;;;;;;;;;;;22.39;44.83;100576.13;1723986;81;20122;-62
2022/08/08 12:58:44;;;;;;;;;;;;;;;21.85;44.99;100573.02;1725534;82;20132;-62
2022/08/08 13:01:11;;;;;;;;;;;;;;;21.65;45.34;100571.48;1722306;82;20080;-62
2022/08/08 13:03:43;;;;;;;;;;;;;;;21.60;45.63;100580.30;1721541;82;21042;-62
2022/08/08 13:06:16;;;;;;;;;;;;;;;21.52;45.82;100573.42;1721682;82;20109;-62
2022/08/08 13:08:51;;;;;;;;;;;;;;;21.65;45.91;100567.50;1719198;82;20106;-62
2022/08/08 13:11:21;;;;;;;;;;;;;;;21.76;45.77;100569.75;1719748;82;20094;-62
2022/08/08 13:13:54;;;;;;;;;;;;;;;21.83;45.76;100578.94;1718826;82;20138;-62
2022/08/08 13:16:22;;;;;;;;;;;;;;;21.74;45.67;100574.38;1716888;82;21014;-62
2022/08/08 13:18:50;;;;;;;;;;;;;;;21.73;45.71;100580.63;1706790;82;20128;-62
2022/08/08 13:21:20;;;;;;;;;;;;;;;21.67;45.87;100566.86;1723868;82;20124;-62
2022/08/08 13:23:47;;;;;;;;;;;;;;;21.73;46.03;100567.34;1721276;82;20660;-62